Аэропорт: Емельяново. Красноярск

ICAO: UNKL

METAR:
2019-07-23 18:30:00
UNKL 231830Z 00000MPS 1100 0300S R29/P2000N PRFG FU SCT036 11/11 Q1004 R29/CLRD65 NOSIG RMK QFE728
METAR:
2019-07-23 16:19:00
TAF AMD UNKL 231619Z 2316/2415 35003MPS 2000 BR FU SCT012 TEMPO 2316/2322 0500 FG FU BKN005 FM232200 01003G10MPS 5000 FU SCT020CB TEMPO 2322/2412 3100 -TSRA FU BKN012CB